Time;durP1;ratioP1;P1;durP2;ratioP2;P2;SDS_P1;SDS_P2;PMS_P1;PMS_P2;Temp;Humidity;BMP_temperature;BMP_pressure;BME280_temperature;BME280_humidity;BME280_pressure;Samples;Min_cycle;Max_cycle;Signal;HPM_P1;HPM_P2
2023/03/04 00:01:35;;;;;;;10.85;6.18;;;9.90;79.10;;;;;;4957100;29;20102;-81
2023/03/04 00:04:01;;;;;;;9.88;5.47;;;9.90;79.10;;;;;;4957562;29;20031;-81
2023/03/04 00:06:26;;;;;;;10.65;5.95;;;9.90;79.00;;;;;;4939969;29;20031;-81
2023/03/04 00:08:52;;;;;;;10.38;5.97;;;9.90;79.10;;;;;;4939416;29;20071;-81
2023/03/04 00:11:17;;;;;;;9.80;5.85;;;9.90;79.10;;;;;;4939856;29;20079;-80
2023/03/04 00:13:43;;;;;;;10.15;6.28;;;10.00;79.10;;;;;;4939929;29;20039;-81
2023/03/04 00:16:08;;;;;;;10.25;5.80;;;9.90;79.10;;;;;;4939307;29;20076;-80
2023/03/04 00:18:34;;;;;;;8.75;4.68;;;9.90;79.10;;;;;;4939844;29;20031;-81
2023/03/04 00:20:59;;;;;;;10.48;5.88;;;9.90;79.10;;;;;;4940031;29;20055;-81
2023/03/04 00:23:25;;;;;;;10.38;5.80;;;9.90;79.00;;;;;;4956077;29;20058;-81
2023/03/04 00:25:50;;;;;;;9.18;5.20;;;10.00;79.10;;;;;;4938825;29;20030;-80
2023/03/04 00:28:16;;;;;;;9.07;5.38;;;9.90;79.00;;;;;;4957070;29;20039;-81
2023/03/04 00:30:41;;;;;;;9.98;5.43;;;9.90;79.10;;;;;;4956703;29;20055;-81
2023/03/04 00:33:07;;;;;;;10.48;5.38;;;9.90;79.00;;;;;;4945883;29;20047;-81
2023/03/04 00:35:32;;;;;;;9.48;5.55;;;9.90;79.10;;;;;;4963712;29;20031;-82
2023/03/04 00:37:57;;;;;;;10.98;5.20;;;9.90;79.10;;;;;;4962821;29;20027;-82
2023/03/04 00:40:23;;;;;;;8.32;5.30;;;9.90;79.00;;;;;;4963036;29;20031;-81
2023/03/04 00:42:49;;;;;;;9.40;5.38;;;9.90;79.00;;;;;;4944646;29;20070;-82
2023/03/04 00:45:14;;;;;;;10.45;5.82;;;9.90;79.00;;;;;;4945205;29;20028;-82
2023/03/04 00:47:40;;;;;;;9.68;5.15;;;9.90;79.00;;;;;;4945756;29;20041;-81
2023/03/04 00:50:06;;;;;;;9.90;4.97;;;9.90;79.00;;;;;;4944411;29;20474;-81
2023/03/04 00:52:31;;;;;;;10.23;5.72;;;9.90;79.00;;;;;;4944398;29;20212;-82
2023/03/04 00:54:57;;;;;;;10.15;5.32;;;9.90;79.00;;;;;;4961460;29;20114;-82
2023/03/04 00:57:22;;;;;;;9.90;5.00;;;9.90;79.00;;;;;;4943821;29;20083;-82
2023/03/04 00:59:48;;;;;;;9.90;4.80;;;9.90;79.00;;;;;;4961521;29;20051;-82
2023/03/04 01:02:13;;;;;;;9.90;4.70;;;9.90;79.00;;;;;;4961010;29;20027;-81
2023/03/04 01:04:40;;;;;;;9.02;4.90;;;9.90;79.00;;;;;;4959922;29;20039;-80
2023/03/04 01:07:06;;;;;;;8.00;4.53;;;9.90;79.00;;;;;;4940360;29;20079;-81
2023/03/04 01:09:32;;;;;;;9.68;4.93;;;9.90;79.10;;;;;;4940402;29;20067;-81
2023/03/04 01:11:57;;;;;;;8.95;5.15;;;10.00;79.10;;;;;;4959885;29;20030;-81
2023/03/04 01:14:23;;;;;;;10.25;5.18;;;9.90;79.50;;;;;;4942029;29;20118;-81
2023/03/04 01:16:49;;;;;;;8.18;4.30;;;9.90;79.00;;;;;;4959373;29;20078;-82
2023/03/04 01:19:14;;;;;;;9.68;4.78;;;9.90;79.00;;;;;;4959440;29;20054;-81
2023/03/04 01:21:40;;;;;;;9.13;4.75;;;9.90;79.10;;;;;;4943184;29;20035;-82
2023/03/04 01:24:05;;;;;;;9.18;4.43;;;9.90;79.10;;;;;;4944871;29;20505;-80
2023/03/04 01:26:31;;;;;;;9.88;4.97;;;9.90;79.10;;;;;;4961839;29;20028;-81
2023/03/04 01:28:56;;;;;;;8.57;4.32;;;9.90;79.10;;;;;;4962186;29;20024;-82
2023/03/04 01:31:22;;;;;;;9.15;4.78;;;9.90;79.00;;;;;;4959454;29;20034;-81
2023/03/04 01:33:47;;;;;;;9.45;4.82;;;9.90;79.10;;;;;;4941324;29;20542;-81
2023/03/04 01:36:13;;;;;;;9.68;4.78;;;9.90;79.10;;;;;;4943515;29;20063;-81
2023/03/04 01:38:38;;;;;;;8.73;4.65;;;9.90;79.10;;;;;;4943972;29;20027;-80
2023/03/04 01:41:06;;;;;;;8.63;4.85;;;9.90;79.20;;;;;;4943866;29;20495;-82
2023/03/04 01:43:34;;;;;;;8.60;4.55;;;9.90;79.10;;;;;;4943053;29;20034;-82
2023/03/04 01:46:00;;;;;;;9.77;4.97;;;9.90;79.10;;;;;;4960030;29;20505;-82
2023/03/04 01:48:37;;;;;;;7.85;4.40;;;9.90;79.10;;;;;;4941164;29;20023;-81
2023/03/04 01:51:11;;;;;;;8.07;4.53;;;9.90;79.10;;;;;;4956031;29;20078;-81
2023/03/04 01:53:36;;;;;;;9.10;4.75;;;9.90;79.20;;;;;;4937997;29;20027;-81
2023/03/04 01:56:23;;;;;;;7.03;3.85;;;9.90;79.20;;;;;;4955720;28;20043;-81
2023/03/04 01:59:06;;;;;;;9.77;4.57;;;9.90;79.10;;;;;;4958370;29;20047;-81
2023/03/04 02:01:32;;;;;;;7.80;4.20;;;9.90;79.10;;;;;;4958973;29;20027;-81
2023/03/04 02:03:58;;;;;;;8.70;4.25;;;9.90;79.20;;;;;;4959138;29;20054;-82
2023/03/04 02:06:23;;;;;;;7.20;3.92;;;9.90;79.20;;;;;;4958642;29;20027;-81
2023/03/04 02:08:49;;;;;;;8.25;4.13;;;9.90;79.20;;;;;;4957234;29;20067;-81
2023/03/04 02:11:15;;;;;;;8.15;4.18;;;9.90;79.20;;;;;;4955845;29;20561;-82
2023/03/04 02:13:40;;;;;;;7.53;3.95;;;9.90;79.20;;;;;;4937506;29;20037;-81
2023/03/04 02:16:06;;;;;;;9.00;4.65;;;9.90;79.20;;;;;;4957304;29;20850;-82
2023/03/04 02:18:31;;;;;;;8.57;3.67;;;9.90;79.20;;;;;;4957894;29;20110;-81
2023/03/04 02:21:03;;;;;;;8.80;4.28;;;9.90;79.20;;;;;;4940267;29;20504;-80
2023/03/04 02:23:29;;;;;;;;;;;9.90;79.20;;;;;;4940798;29;20033;-82
2023/03/04 02:26:27;;;;;;;7.75;3.85;;;9.90;79.20;;;;;;4939461;29;19997;-81
2023/03/04 02:28:55;;;;;;;8.82;4.30;;;9.90;79.20;;;;;;4886928;29;20067;-81
2023/03/04 02:31:33;;;;;;;9.02;4.38;;;9.90;79.20;;;;;;4937385;29;20487;-81
2023/03/04 02:34:02;;;;;;;7.53;3.75;;;9.90;79.20;;;;;;4956755;29;20086;-81
2023/03/04 02:36:28;;;;;;;7.25;3.75;;;9.90;79.20;;;;;;4957204;29;20395;-82
2023/03/04 02:38:55;;;;;;;8.10;4.00;;;9.90;79.20;;;;;;4956676;29;20065;-81
2023/03/04 02:41:25;;;;;;;7.00;3.90;;;9.90;79.20;;;;;;4956715;29;20106;-81
2023/03/04 02:43:52;;;;;;;7.68;3.95;;;9.90;79.20;;;;;;4955224;29;20039;-81
2023/03/04 02:46:18;;;;;;;8.38;4.13;;;9.90;79.30;;;;;;4954483;29;20030;-81
2023/03/04 02:48:44;;;;;;;8.13;3.78;;;9.90;79.20;;;;;;4936873;29;20031;-81
2023/03/04 02:51:09;;;;;;;8.05;3.78;;;9.90;79.20;;;;;;4937265;29;20075;-80
2023/03/04 02:53:35;;;;;;;7.53;4.00;;;9.90;79.20;;;;;;4937025;29;20138;-81
2023/03/04 02:56:00;;;;;;;8.23;3.65;;;9.90;79.20;;;;;;4953806;29;20508;-80
2023/03/04 02:58:26;;;;;;;7.65;3.53;;;9.90;79.10;;;;;;4955246;29;20386;-81
2023/03/04 03:00:51;;;;;;;8.43;3.92;;;9.90;79.10;;;;;;4954146;29;20450;-81
2023/03/04 03:03:17;;;;;;;7.68;3.60;;;9.90;79.20;;;;;;4953900;29;20114;-82
2023/03/04 03:05:43;;;;;;;7.63;3.60;;;9.80;79.10;;;;;;4955084;28;20489;-82
2023/03/04 03:08:08;;;;;;;6.63;3.35;;;9.90;79.20;;;;;;4958564;29;20027;-81
2023/03/04 03:10:34;;;;;;;8.18;3.78;;;9.90;79.20;;;;;;4941125;29;20023;-81
2023/03/04 03:13:00;;;;;;;7.28;3.58;;;9.90;79.20;;;;;;4958569;29;20027;-81
2023/03/04 03:15:26;;;;;;;7.30;3.45;;;9.90;79.20;;;;;;4958383;29;20402;-81
2023/03/04 03:17:52;;;;;;;8.18;4.03;;;9.90;79.30;;;;;;4941034;29;20047;-81
2023/03/04 03:20:18;;;;;;;7.32;3.35;;;9.90;79.30;;;;;;4958088;29;20028;-81
2023/03/04 03:22:44;;;;;;;8.38;3.88;;;9.90;79.30;;;;;;4941134;29;20038;-81
2023/03/04 03:25:11;;;;;;;7.75;3.38;;;9.90;79.20;;;;;;4958637;29;20106;-84
2023/03/04 03:27:37;;;;;;;8.20;3.85;;;9.90;79.30;;;;;;4940827;29;20031;-81
2023/03/04 03:30:03;;;;;;;6.78;3.10;;;9.90;79.30;;;;;;4956682;29;20064;-82
2023/03/04 03:32:29;;;;;;;7.10;3.45;;;9.90;79.30;;;;;;4958530;29;20023;-81
2023/03/04 03:34:54;;;;;;;6.95;3.10;;;9.90;79.30;;;;;;4939059;29;20027;-81
2023/03/04 03:37:20;;;;;;;8.13;3.17;;;9.90;79.30;;;;;;4938686;29;20032;-80
2023/03/04 03:39:45;;;;;;;6.30;3.10;;;9.90;79.30;;;;;;4938242;29;20076;-82
2023/03/04 03:42:11;;;;;;;6.68;3.17;;;9.90;79.80;;;;;;4938480;29;20051;-81
2023/03/04 03:44:36;;;;;;;7.45;3.40;;;9.90;79.20;;;;;;4937857;29;20447;-81
2023/03/04 03:47:02;;;;;;;6.60;3.13;;;9.90;79.30;;;;;;4920728;29;20051;-80
2023/03/04 03:49:27;;;;;;;6.93;3.30;;;9.90;79.30;;;;;;4938514;29;20028;-80
2023/03/04 03:51:53;;;;;;;7.05;3.30;;;9.90;79.30;;;;;;4938520;29;20181;-80
2023/03/04 03:54:18;;;;;;;6.53;3.30;;;9.90;79.30;;;;;;4937515;29;20486;-81
2023/03/04 03:56:43;;;;;;;7.70;3.35;;;9.90;79.30;;;;;;4937581;29;20068;-80
2023/03/04 03:59:09;;;;;;;7.88;3.22;;;9.90;79.20;;;;;;4942089;29;20036;-81
2023/03/04 04:01:34;;;;;;;7.53;3.42;;;9.90;79.30;;;;;;4944877;29;20463;-81
2023/03/04 04:04:00;;;;;;;6.50;2.92;;;9.90;79.30;;;;;;4926767;29;20126;-81
2023/03/04 04:06:26;;;;;;;6.13;3.20;;;9.80;79.30;;;;;;4943887;29;20108;-80
2023/03/04 04:08:51;;;;;;;6.78;3.33;;;9.90;79.30;;;;;;4942095;29;20038;-79
2023/03/04 04:11:17;;;;;;;6.35;2.60;;;9.80;79.20;;;;;;4926536;29;20027;-81
2023/03/04 04:13:43;;;;;;;7.05;3.15;;;9.90;79.30;;;;;;4942128;29;20375;-81
2023/03/04 04:16:09;;;;;;;6.93;3.38;;;9.90;79.30;;;;;;4942465;29;20035;-81
2023/03/04 04:18:35;;;;;;;6.60;3.00;;;9.90;79.30;;;;;;4925993;29;20036;-81
2023/03/04 04:21:00;;;;;;;5.97;2.88;;;9.80;79.30;;;;;;4942838;29;20032;-81
2023/03/04 04:23:26;;;;;;;7.10;3.20;;;9.90;79.40;;;;;;4941291;29;20036;-82
2023/03/04 04:25:54;;;;;;;6.05;3.03;;;9.80;79.30;;;;;;4940835;29;20020;-82
2023/03/04 04:28:20;;;;;;;6.55;2.88;;;9.80;79.30;;;;;;4925230;29;20028;-81
2023/03/04 04:30:45;;;;;;;6.95;3.05;;;9.90;79.40;;;;;;4943190;29;20072;-81
2023/03/04 04:33:11;;;;;;;5.68;2.83;;;9.90;79.40;;;;;;4924883;29;20059;-81
2023/03/04 04:35:39;;;;;;;6.85;3.40;;;9.80;79.30;;;;;;4941592;29;20394;-82
2023/03/04 04:38:06;;;;;;;6.25;3.05;;;9.80;79.30;;;;;;4924563;29;20032;-81
2023/03/04 04:40:32;;;;;;;6.72;2.85;;;9.80;79.40;;;;;;4941222;29;20031;-82
2023/03/04 04:42:57;;;;;;;6.85;2.83;;;9.90;79.40;;;;;;4941149;29;20038;-81
2023/03/04 04:45:23;;;;;;;7.13;3.10;;;9.80;79.30;;;;;;4939331;29;20030;-82
2023/03/04 04:47:54;;;;;;;5.55;2.63;;;9.90;79.40;;;;;;4941359;29;20505;-81
2023/03/04 04:50:19;;;;;;;5.68;2.55;;;9.90;79.40;;;;;;4944255;29;20039;-81
2023/03/04 04:52:45;;;;;;;6.70;3.03;;;9.80;79.40;;;;;;4943999;29;20035;-81
2023/03/04 04:55:10;;;;;;;5.28;2.58;;;9.90;79.40;;;;;;4943610;29;20027;-82
2023/03/04 04:57:36;;;;;;;5.97;2.67;;;9.80;79.40;;;;;;4943817;29;20027;-82
2023/03/04 05:00:04;;;;;;;6.72;2.70;;;9.80;79.40;;;;;;4943710;29;20032;-81
2023/03/04 05:02:30;;;;;;;6.45;2.83;;;9.80;79.40;;;;;;4942646;29;20036;-81
2023/03/04 05:04:55;;;;;;;6.03;2.63;;;9.80;79.90;;;;;;4924258;29;20027;-81
2023/03/04 05:07:21;;;;;;;5.60;2.70;;;9.80;79.40;;;;;;4939529;29;20118;-79
2023/03/04 05:09:46;;;;;;;5.93;2.80;;;9.80;79.30;;;;;;4934144;29;20079;-78
2023/03/04 05:12:12;;;;;;;7.05;2.70;;;9.80;79.40;;;;;;4941232;29;20035;-77
2023/03/04 05:14:37;;;;;;;5.60;2.50;;;9.80;79.40;;;;;;4934827;29;20039;-79
2023/03/04 05:17:03;;;;;;;6.32;2.75;;;9.80;79.30;;;;;;4931283;29;20043;-78
2023/03/04 05:19:28;;;;;;;6.43;2.65;;;9.80;79.30;;;;;;4931949;29;20031;-77
2023/03/04 05:21:54;;;;;;;5.70;2.53;;;9.80;79.40;;;;;;4932867;29;20111;-78
2023/03/04 05:24:20;;;;;;;7.80;2.70;;;9.90;79.30;;;;;;4916014;29;20031;-79
2023/03/04 05:26:45;;;;;;;5.00;2.50;;;9.80;79.30;;;;;;4944892;29;20062;-79
2023/03/04 05:29:11;;;;;;;4.45;2.20;;;9.80;79.30;;;;;;4949237;28;20481;-79
2023/03/04 05:31:36;;;;;;;6.03;2.63;;;9.80;79.40;;;;;;4955297;29;20019;-81
2023/03/04 05:34:02;;;;;;;6.13;2.80;;;9.80;79.30;;;;;;4933337;29;20478;-78
2023/03/04 05:36:28;;;;;;;5.88;2.53;;;9.90;79.30;;;;;;4954154;29;20042;-80
2023/03/04 05:38:53;;;;;;;6.50;2.53;;;9.80;79.30;;;;;;4934134;29;20034;-79
2023/03/04 05:41:21;;;;;;;5.57;2.58;;;9.80;79.30;;;;;;4934348;29;20028;-77
2023/03/04 05:43:47;;;;;;;5.80;2.50;;;9.80;79.30;;;;;;4933362;29;20418;-77
2023/03/04 05:46:15;;;;;;;5.70;2.50;;;9.80;79.30;;;;;;4915331;29;20134;-79
2023/03/04 05:48:41;;;;;;;5.55;2.50;;;9.80;79.40;;;;;;4930067;29;20032;-77
2023/03/04 05:51:06;;;;;;;6.10;2.53;;;9.80;79.30;;;;;;4934996;29;20030;-78
2023/03/04 05:53:32;;;;;;;6.07;2.53;;;9.80;79.30;;;;;;4952650;29;20042;-78
2023/03/04 05:55:58;;;;;;;5.22;2.40;;;9.80;79.40;;;;;;4932731;29;20027;-78
2023/03/04 05:58:24;;;;;;;6.07;2.85;;;9.80;79.40;;;;;;4932298;29;20106;-78
2023/03/04 06:00:50;;;;;;;5.13;2.22;;;9.80;79.40;;;;;;4916715;29;20036;-79
2023/03/04 06:03:21;;;;;;;7.47;2.80;;;9.90;79.40;;;;;;4917557;29;20051;-80
2023/03/04 06:05:47;;;;;;;5.60;2.40;;;9.80;79.30;;;;;;4932717;29;20024;-80
2023/03/04 06:08:13;;;;;;;5.15;2.20;;;9.80;79.40;;;;;;4932121;29;20035;-77
2023/03/04 06:10:39;;;;;;;6.50;2.50;;;9.80;79.40;;;;;;4932163;29;20517;-79
2023/03/04 06:13:05;;;;;;;5.18;2.10;;;9.90;79.40;;;;;;4913457;29;20128;-81
2023/03/04 06:15:31;;;;;;;5.43;2.38;;;9.80;79.40;;;;;;4912507;29;20151;-78
2023/03/04 06:17:57;;;;;;;5.63;2.60;;;9.80;79.40;;;;;;4913146;29;20114;-78
2023/03/04 06:20:22;;;;;;;5.70;2.15;;;9.80;79.40;;;;;;4913794;29;20023;-77
2023/03/04 06:22:48;;;;;;;5.65;2.13;;;9.80;79.40;;;;;;4913911;29;20501;-77
2023/03/04 06:25:13;;;;;;;6.13;2.20;;;9.80;79.40;;;;;;4930726;29;20414;-78
2023/03/04 06:27:39;;;;;;;5.30;2.10;;;9.80;79.40;;;;;;4930758;29;20036;-78
2023/03/04 06:30:05;;;;;;;7.80;2.72;;;9.80;79.40;;;;;;4913656;29;20031;-78
2023/03/04 06:32:31;;;;;;;15.50;2.97;;;9.80;79.30;;;;;;4915213;29;20031;-77
2023/03/04 06:34:56;;;;;;;14.18;2.35;;;9.70;77.00;;;;;;4931680;29;20035;-77
2023/03/04 06:37:22;;;;;;;13.85;1.80;;;9.70;76.50;;;;;;4929924;29;20028;-80
2023/03/04 06:39:48;;;;;;;15.75;2.28;;;9.70;75.80;;;;;;4929855;29;20036;-77
2023/03/04 06:42:14;;;;;;;11.45;2.10;;;9.70;77.00;;;;;;4914890;29;20116;-77
2023/03/04 06:44:39;;;;;;;8.68;2.45;;;9.70;77.20;;;;;;4944463;29;20035;-77
2023/03/04 06:47:06;;;;;;;9.88;2.28;;;9.70;77.10;;;;;;4934323;29;20033;-75
2023/03/04 06:49:31;;;;;;;7.68;1.90;;;9.70;77.40;;;;;;4950702;28;20031;-75
2023/03/04 06:51:57;;;;;;;5.05;1.63;;;9.80;77.60;;;;;;4950723;28;20035;-75
2023/03/04 06:54:22;;;;;;;4.72;1.73;;;9.80;77.80;;;;;;4950913;28;20035;-75
2023/03/04 06:56:48;;;;;;;5.63;1.48;;;9.80;78.00;;;;;;4950356;28;20042;-75
2023/03/04 06:59:13;;;;;;;6.68;2.03;;;9.80;78.00;;;;;;4950973;28;20498;-75
2023/03/04 07:01:39;;;;;;;6.28;1.80;;;9.80;78.10;;;;;;4933001;29;20031;-75
2023/03/04 07:04:05;;;;;;;6.53;1.90;;;9.80;78.20;;;;;;4933088;29;20035;-75
2023/03/04 07:06:30;;;;;;;6.78;1.92;;;9.80;78.20;;;;;;4950308;29;20031;-76
2023/03/04 07:08:57;;;;;;;5.57;1.70;;;9.80;78.30;;;;;;4933549;29;20031;-75
2023/03/04 07:11:23;;;;;;;5.97;1.60;;;9.80;78.30;;;;;;4933147;29;20379;-75
2023/03/04 07:13:49;;;;;;;5.30;1.67;;;9.80;78.40;;;;;;4950247;29;20091;-74
2023/03/04 07:16:18;;;;;;;4.72;1.45;;;9.80;78.40;;;;;;4949741;29;20408;-75
2023/03/04 07:18:44;;;;;;;3.67;1.42;;;9.80;78.40;;;;;;4932816;29;20027;-75
2023/03/04 07:21:12;;;;;;;5.47;1.50;;;9.80;78.40;;;;;;4933565;29;20031;-75
2023/03/04 07:23:37;;;;;;;7.60;1.80;;;9.80;78.50;;;;;;4949498;29;20035;-75
2023/03/04 07:26:03;;;;;;;5.93;1.67;;;9.80;78.60;;;;;;4931198;29;20031;-75
2023/03/04 07:28:29;;;;;;;6.20;1.92;;;9.80;78.50;;;;;;4931127;29;20027;-76
2023/03/04 07:30:54;;;;;;;4.28;1.48;;;9.80;78.60;;;;;;4949921;29;20047;-74
2023/03/04 07:33:20;;;;;;;5.32;1.42;;;9.80;78.60;;;;;;4931501;29;20124;-75
2023/03/04 07:35:45;;;;;;;4.53;1.55;;;9.80;78.70;;;;;;4932320;29;20027;-74
2023/03/04 07:38:11;;;;;;;4.30;1.58;;;9.80;78.70;;;;;;4932807;29;20067;-75
2023/03/04 07:40:37;;;;;;;5.03;1.60;;;9.80;78.70;;;;;;4949997;29;20031;-75
2023/03/04 07:43:03;;;;;;;5.93;1.55;;;9.80;78.70;;;;;;4949997;29;20082;-76
2023/03/04 07:45:29;;;;;;;4.68;1.40;;;9.80;78.70;;;;;;4949795;29;20023;-74
2023/03/04 07:47:54;;;;;;;5.10;1.60;;;9.80;78.70;;;;;;4932720;29;20027;-75
2023/03/04 07:50:21;;;;;;;6.07;1.52;;;9.80;78.80;;;;;;4949805;29;20027;-75
2023/03/04 07:52:49;;;;;;;6.35;2.03;;;9.80;78.70;;;;;;4949399;28;20026;-74
2023/03/04 07:55:15;;;;;;;4.50;1.40;;;9.80;78.70;;;;;;4932225;29;20034;-74
2023/03/04 07:57:42;;;;;;;4.57;1.42;;;9.80;78.70;;;;;;4932737;29;20031;-74
2023/03/04 08:00:09;;;;;;;4.38;1.52;;;9.80;78.70;;;;;;4932665;29;20035;-75
2023/03/04 08:02:34;;;;;;;5.22;1.70;;;9.80;78.70;;;;;;4950017;29;20958;-75
2023/03/04 08:05:00;;;;;;;5.20;1.70;;;9.80;78.70;;;;;;4950265;29;20102;-76
2023/03/04 08:07:25;;;;;;;4.30;1.23;;;9.80;78.80;;;;;;4949951;29;20070;-75
2023/03/04 08:09:51;;;;;;;3.42;1.20;;;9.80;78.70;;;;;;4949869;29;20069;-76
2023/03/04 08:12:17;;;;;;;4.32;1.40;;;9.80;78.80;;;;;;4949914;29;20106;-76
2023/03/04 08:14:43;;;;;;;5.18;1.73;;;9.80;78.80;;;;;;4941391;29;20118;-76
2023/03/04 08:17:09;;;;;;;4.50;1.60;;;9.80;78.70;;;;;;4931946;29;20459;-76
2023/03/04 08:19:35;;;;;;;6.60;1.55;;;9.80;78.80;;;;;;4929149;29;20067;-76
2023/03/04 08:22:01;;;;;;;4.60;1.48;;;9.80;78.70;;;;;;4930769;29;20036;-75
2023/03/04 08:24:27;;;;;;;4.45;1.40;;;9.90;78.80;;;;;;4929706;29;20134;-77
2023/03/04 08:26:52;;;;;;;5.82;1.50;;;9.80;78.70;;;;;;4929926;29;20107;-75
2023/03/04 08:29:21;;;;;;;4.07;1.60;;;9.80;78.70;;;;;;4912716;29;20482;-75
2023/03/04 08:31:48;;;;;;;4.57;1.35;;;9.80;78.60;;;;;;4935984;29;20028;-75
2023/03/04 08:34:14;;;;;;;3.13;1.23;;;9.80;78.60;;;;;;4931132;29;20517;-76
2023/03/04 08:36:43;;;;;;;4.15;1.67;;;9.80;78.60;;;;;;4929954;29;20031;-75
2023/03/04 08:39:12;;;;;;;4.32;1.40;;;9.90;78.70;;;;;;4948722;28;20874;-76
2023/03/04 08:41:38;;;;;;;3.72;1.30;;;9.80;78.60;;;;;;4932284;29;20031;-79
2023/03/04 08:44:06;;;;;;;4.38;1.45;;;9.80;78.60;;;;;;4953528;28;20051;-79
2023/03/04 08:46:32;;;;;;;3.40;1.35;;;9.90;78.60;;;;;;4958734;29;20397;-80
2023/03/04 08:48:58;;;;;;;4.10;1.55;;;9.90;78.60;;;;;;4959026;28;20034;-79
2023/03/04 08:51:23;;;;;;;4.38;1.60;;;9.80;78.60;;;;;;4941159;28;20020;-79
2023/03/04 08:53:49;;;;;;;3.90;1.23;;;9.80;78.60;;;;;;4958085;29;20106;-78
2023/03/04 08:56:15;;;;;;;4.28;1.33;;;9.90;78.70;;;;;;4957864;28;20031;-79
2023/03/04 08:58:41;;;;;;;4.10;1.30;;;9.80;78.60;;;;;;4940810;29;20079;-79
2023/03/04 09:01:09;;;;;;;3.65;1.20;;;9.80;78.70;;;;;;4961244;28;20031;-80
2023/03/04 09:03:35;;;;;;;3.58;1.38;;;9.80;78.60;;;;;;4959249;28;20024;-80
2023/03/04 09:06:02;;;;;;;3.88;1.25;;;9.80;78.70;;;;;;4942585;29;20027;-79
2023/03/04 09:08:28;;;;;;;4.45;1.50;;;9.80;78.70;;;;;;4957310;29;20098;-78
2023/03/04 09:10:54;;;;;;;3.60;1.35;;;9.90;78.80;;;;;;4958888;29;20055;-79
2023/03/04 09:13:22;;;;;;;5.68;1.60;;;9.90;78.80;;;;;;4940955;29;20032;-80
2023/03/04 09:15:49;;;;;;;3.72;1.10;;;9.90;78.80;;;;;;4956706;28;20516;-80
2023/03/04 09:18:15;;;;;;;4.68;1.48;;;9.80;78.70;;;;;;4958453;29;20083;-78
2023/03/04 09:20:41;;;;;;;3.60;1.42;;;9.80;78.70;;;;;;4940809;29;20079;-78
2023/03/04 09:23:08;;;;;;;4.00;1.40;;;9.80;78.70;;;;;;4958109;28;20038;-79
2023/03/04 09:25:34;;;;;;;3.38;1.30;;;9.90;78.80;;;;;;4956528;28;20019;-78
2023/03/04 09:27:59;;;;;;;4.25;1.60;;;9.90;78.80;;;;;;4939255;29;20035;-79
2023/03/04 09:30:25;;;;;;;4.32;1.45;;;9.90;78.80;;;;;;4956297;28;20019;-79
2023/03/04 09:32:50;;;;;;;3.67;1.50;;;9.80;78.70;;;;;;4956465;29;20095;-81
2023/03/04 09:35:16;;;;;;;3.50;1.42;;;9.80;78.80;;;;;;4955539;28;20058;-80
2023/03/04 09:37:41;;;;;;;3.42;1.48;;;9.90;78.80;;;;;;4939062;29;20028;-80
2023/03/04 09:40:08;;;;;;;3.20;1.30;;;9.80;78.70;;;;;;4959334;28;20490;-79
2023/03/04 09:42:37;;;;;;;3.60;1.50;;;9.80;78.70;;;;;;4925155;29;20150;-79
2023/03/04 09:45:06;;;;;;;3.40;1.23;;;9.90;78.70;;;;;;4939454;29;20038;-79
2023/03/04 09:47:34;;;;;;;3.35;1.45;;;9.90;78.80;;;;;;4955622;28;20031;-79
2023/03/04 09:50:03;;;;;;;3.55;1.30;;;9.90;78.80;;;;;;4938785;29;20023;-78
2023/03/04 09:53:01;;;;;;;4.43;1.52;;;9.90;78.80;;;;;;4955335;28;20035;-78
2023/03/04 09:55:46;;;;;;;2.60;1.13;;;9.90;78.80;;;;;;4937420;29;20035;-78
2023/03/04 09:58:39;;;;;;;3.42;1.40;;;9.90;78.80;;;;;;4955447;29;20027;-79
2023/03/04 10:01:44;;;;;;;3.80;1.40;;;9.90;78.80;;;;;;4938164;29;20027;-79
2023/03/04 10:04:24;;;;;;;4.30;1.42;;;9.90;78.90;;;;;;4903941;29;20043;-78
2023/03/04 10:06:53;;;;;;;3.92;1.40;;;9.90;78.90;;;;;;4939891;29;20566;-80
2023/03/04 10:09:24;;;;;;;4.57;1.38;;;9.90;78.80;;;;;;4939082;28;20050;-79
2023/03/04 10:12:01;;;;;;;3.33;1.40;;;9.80;78.70;;;;;;4939541;29;20053;-79
2023/03/04 10:14:36;;;;;;;3.33;1.45;;;9.90;78.80;;;;;;4937769;28;20378;-78
2023/03/04 10:17:17;;;;;;;4.50;1.63;;;9.90;78.90;;;;;;4954913;28;20031;-77
2023/03/04 10:19:58;;;;;;;4.05;1.75;;;9.90;78.90;;;;;;4956028;28;20016;-79
2023/03/04 10:22:33;;;;;;;3.95;1.50;;;9.90;78.70;;;;;;4941707;29;20023;-77
2023/03/04 10:25:13;;;;;;;3.90;1.50;;;9.90;78.80;;;;;;4919352;29;20036;-77
2023/03/04 10:27:39;;;;;;;3.30;1.42;;;9.90;78.80;;;;;;4935562;29;20016;-81
2023/03/04 10:30:18;;;;;;;3.65;1.48;;;9.90;78.80;;;;;;4936634;29;20091;-79
2023/03/04 10:32:46;;;;;;;4.55;1.38;;;9.90;78.80;;;;;;4919472;29;20048;-79
2023/03/04 10:35:12;;;;;;;3.20;1.35;;;9.90;78.90;;;;;;4919609;29;20031;-78
2023/03/04 10:37:49;;;;;;;3.30;1.60;;;9.90;78.80;;;;;;4937479;29;20102;-80
2023/03/04 10:40:24;;;;;;;3.17;1.25;;;9.80;78.80;;;;;;4937338;29;20379;-79
2023/03/04 10:42:50;;;;;;;4.55;1.80;;;9.90;78.90;;;;;;4935190;29;20036;-79
2023/03/04 10:45:22;;;;;;;5.30;1.45;;;9.90;78.80;;;;;;4938162;29;20024;-79
2023/03/04 10:47:52;;;;;;;6.15;1.70;;;9.90;78.80;;;;;;4939988;29;20039;-79
2023/03/04 10:50:26;;;;;;;84.20;8.55;;;9.90;78.70;;;;;;4938478;29;20108;-79
2023/03/04 10:52:54;;;;;;;151.20;12.80;;;9.90;78.70;;;;;;4921305;29;20490;-80
2023/03/04 10:55:27;;;;;;;148.85;11.77;;;9.80;77.70;;;;;;4938738;29;20383;-81
2023/03/04 10:57:55;;;;;;;75.45;7.90;;;9.80;77.60;;;;;;4939069;29;20024;-81
2023/03/04 11:00:35;;;;;;;78.93;9.00;;;9.90;77.50;;;;;;4938807;29;20074;-80
2023/03/04 11:03:23;;;;;;;128.15;12.07;;;9.90;77.60;;;;;;4922638;29;20030;-81
2023/03/04 11:05:49;;;;;;;97.15;9.73;;;9.90;77.50;;;;;;4921732;29;20031;-81
2023/03/04 11:08:21;;;;;;;93.85;9.13;;;9.90;77.50;;;;;;4938803;29;20047;-81
2023/03/04 11:10:48;;;;;;;73.30;8.13;;;9.90;77.70;;;;;;4921822;29;20020;-81
2023/03/04 11:13:21;;;;;;;82.22;7.63;;;9.90;77.70;;;;;;4937235;29;20035;-81
2023/03/04 11:16:04;;;;;;;54.53;6.60;;;9.90;77.80;;;;;;4936650;29;20052;-81
2023/03/04 11:18:51;;;;;;;34.67;4.50;;;9.90;77.90;;;;;;4938229;29;20063;-81
2023/03/04 11:21:20;;;;;;;37.47;6.80;;;9.90;78.00;;;;;;4937667;29;20114;-81
2023/03/04 11:23:50;;;;;;;27.95;3.38;;;9.90;78.50;;;;;;4939029;29;20032;-81
2023/03/04 11:26:22;;;;;;;21.58;3.55;;;9.80;78.70;;;;;;4938203;29;20035;-81
2023/03/04 11:29:04;;;;;;;31.95;4.45;;;9.80;79.00;;;;;;4939291;29;20023;-81
2023/03/04 11:31:37;;;;;;;24.25;3.47;;;9.80;79.10;;;;;;4941643;29;20034;-81
2023/03/04 11:34:16;;;;;;;28.65;4.00;;;9.90;79.10;;;;;;4942361;29;20048;-81
2023/03/04 11:37:04;;;;;;;23.92;4.35;;;9.90;79.00;;;;;;4943059;29;20118;-81
2023/03/04 11:39:53;;;;;;;21.55;3.97;;;9.90;79.50;;;;;;4944469;29;20028;-81
2023/03/04 11:42:50;;;;;;;20.23;3.47;;;9.90;79.00;;;;;;4944050;29;20059;-81
2023/03/04 11:45:41;;;;;;;24.52;4.07;;;9.90;79.00;;;;;;4926115;29;20032;-81
2023/03/04 11:48:30;;;;;;;29.60;3.50;;;9.90;78.90;;;;;;4944131;29;20028;-81
2023/03/04 11:51:10;;;;;;;30.75;4.63;;;9.90;78.90;;;;;;4925872;29;20116;-81
2023/03/04 11:53:50;;;;;;;30.10;4.18;;;10.00;78.90;;;;;;4925635;29;20028;-82
2023/03/04 11:56:23;;;;;;;20.80;3.20;;;10.00;78.70;;;;;;4941444;29;20110;-81
2023/03/04 11:59:17;;;;;;;25.27;3.65;;;10.10;78.60;;;;;;4941449;29;20055;-81
2023/03/04 12:01:49;;;;;;;19.33;2.72;;;10.10;78.50;;;;;;4941185;29;20056;-81
2023/03/04 12:04:32;;;;;;;23.05;3.42;;;10.10;78.50;;;;;;4940852;29;20038;-82
2023/03/04 12:07:25;;;;;;;14.70;2.55;;;10.10;78.40;;;;;;4923683;29;20180;-81
2023/03/04 12:10:18;;;;;;;20.45;3.10;;;10.10;78.40;;;;;;4941491;29;20028;-81
2023/03/04 12:13:16;;;;;;;17.70;2.92;;;10.10;78.40;;;;;;4940948;29;20646;-80
2023/03/04 12:15:47;;;;;;;18.77;3.22;;;10.10;78.40;;;;;;4923807;29;20525;-82
2023/03/04 12:18:47;;;;;;;17.65;2.83;;;10.10;78.50;;;;;;4941986;29;20028;-82
2023/03/04 12:21:49;;;;;;;16.70;3.03;;;10.10;78.30;;;;;;4941522;29;20055;-82
2023/03/04 12:25:02;;;;;;;13.48;2.72;;;10.10;78.30;;;;;;4939631;29;20072;-83
2023/03/04 12:27:42;;;;;;;14.18;2.63;;;10.10;78.40;;;;;;4939978;29;20529;-83
2023/03/04 12:30:44;;;;;;;13.88;3.00;;;10.10;78.30;;;;;;4920870;29;20030;-82
2023/03/04 12:33:33;;;;;;;13.05;2.72;;;10.10;78.40;;;;;;4921050;29;20036;-81
2023/03/04 12:36:33;;;;;;;18.00;2.50;;;10.10;78.30;;;;;;4941386;29;20493;-82
2023/03/04 12:39:13;;;;;;;11.82;3.03;;;10.00;78.20;;;;;;4921199;29;20035;-81
2023/03/04 12:42:09;;;;;;;16.30;2.92;;;10.00;78.20;;;;;;4921731;29;20059;-81
2023/03/04 12:44:58;;;;;;;14.25;2.80;;;10.10;78.20;;;;;;4952553;29;20031;-81
2023/03/04 12:47:44;;;;;;;13.73;2.97;;;10.00;78.10;;;;;;4939258;29;20023;-82
2023/03/04 12:50:48;;;;;;;10.65;1.98;;;10.10;78.10;;;;;;4958493;29;20039;-82
2023/03/04 12:53:36;;;;;;;11.77;2.22;;;10.10;78.20;;;;;;4937297;29;20035;-81
2023/03/04 12:56:04;;;;;;;13.55;2.30;;;10.10;78.20;;;;;;4938506;29;20503;-82
2023/03/04 12:58:31;;;;;;;13.55;2.40;;;10.00;78.10;;;;;;4920794;29;20039;-80
2023/03/04 13:01:07;;;;;;;15.90;2.20;;;10.10;78.10;;;;;;4921434;29;20127;-83
2023/03/04 13:03:50;;;;;;;10.93;1.90;;;10.10;78.00;;;;;;4922905;29;20036;-80
2023/03/04 13:06:34;;;;;;;12.73;2.53;;;10.10;78.00;;;;;;4939779;29;20389;-85